Time;durP1;ratioP1;P1;durP2;ratioP2;P2;SDS_P1;SDS_P2;PMS_P1;PMS_P2;Temp;Humidity;BMP_temperature;BMP_pressure;BME280_temperature;BME280_humidity;BME280_pressure;Samples;Min_cycle;Max_cycle;Signal;HPM_P1;HPM_P2
2020/12/28 00:02:16;;;;;;;17.92;10.07;;;;;;;1.27;65.05;98495.47;5083605;28;20405;-64
2020/12/28 00:04:43;;;;;;;17.17;9.82;;;;;;;1.26;64.88;98492.97;5084336;28;20040;-65
2020/12/28 00:07:09;;;;;;;16.67;11.18;;;;;;;1.24;65.18;98484.44;5082886;28;20059;-67
2020/12/28 00:09:36;;;;;;;18.48;11.90;;;;;;;1.23;65.34;98491.41;5083569;28;20055;-65
2020/12/28 00:12:02;;;;;;;17.13;11.02;;;;;;;1.20;65.42;98483.78;5085389;28;20566;-66
2020/12/28 00:14:29;;;;;;;13.43;7.65;;;;;;;1.23;65.40;98477.59;5082797;28;20048;-65
2020/12/28 00:16:56;;;;;;;17.15;9.82;;;;;;;1.21;65.22;98469.03;5084436;28;20047;-64
2020/12/28 00:19:23;;;;;;;16.67;9.68;;;;;;;1.20;65.52;98465.59;5085171;28;20051;-66
2020/12/28 00:21:49;;;;;;;15.15;10.07;;;;;;;1.21;65.63;98469.03;5083887;28;20047;-65
2020/12/28 00:24:15;;;;;;;11.30;5.38;;;;;;;1.16;65.62;98466.72;5084995;28;20044;-64
2020/12/28 00:26:43;;;;;;;18.55;8.68;;;;;;;1.22;65.51;98461.13;5084683;28;20358;-66
2020/12/28 00:29:13;;;;;;;18.50;9.75;;;;;;;1.24;65.52;98454.09;5083216;28;20143;-64
2020/12/28 00:31:40;;;;;;;14.68;9.20;;;;;;;1.24;65.80;98438.47;5085700;28;20044;-66
2020/12/28 00:34:08;;;;;;;13.82;7.53;;;;;;;1.25;65.79;98440.13;5086506;28;20131;-66
2020/12/28 00:36:34;;;;;;;19.83;12.05;;;;;;;1.24;65.56;98446.28;5086519;28;20052;-66
2020/12/28 00:39:01;;;;;;;16.90;10.57;;;;;;;1.30;65.75;98443.28;5088150;28;20092;-66
2020/12/28 00:41:27;;;;;;;13.30;7.95;;;;;;;1.34;65.84;98444.75;5089311;28;20054;-64
2020/12/28 00:43:53;;;;;;;16.00;9.43;;;;;;;1.37;65.85;98443.72;5088289;28;20124;-65
2020/12/28 00:46:22;;;;;;;15.65;8.82;;;;;;;1.44;65.67;98426.81;5087320;28;20059;-65
2020/12/28 00:48:48;;;;;;;17.25;10.07;;;;;;;1.47;65.48;98423.16;5087334;28;20048;-64
2020/12/28 00:51:16;;;;;;;14.45;8.23;;;;;;;1.52;65.60;98423.69;5086745;28;20060;-65
2020/12/28 00:53:42;;;;;;;15.50;8.57;;;;;;;1.55;65.45;98414.84;5085324;28;20044;-65
2020/12/28 00:56:09;;;;;;;16.00;7.80;;;;;;;1.55;65.13;98420.91;5086988;28;20052;-65
2020/12/28 00:58:36;;;;;;;20.35;12.80;;;;;;;1.56;65.68;98429.53;5086773;28;20089;-68
2020/12/28 01:01:03;;;;;;;14.13;6.55;;;;;;;1.49;65.80;98408.28;5087797;28;20059;-65
2020/12/28 01:03:29;;;;;;;14.30;9.15;;;;;;;1.49;65.96;98416.06;5086562;28;20510;-65
2020/12/28 01:05:56;;;;;;;11.18;6.53;;;;;;;1.55;65.77;98412.25;5088013;28;20284;-65
2020/12/28 01:08:23;;;;;;;15.75;9.10;;;;;;;1.58;65.63;98399.88;5087563;28;20425;-66
2020/12/28 01:10:50;;;;;;;17.35;12.98;;;;;;;1.61;65.64;98389.25;5087107;28;20066;-69
2020/12/28 01:13:17;;;;;;;18.80;8.82;;;;;;;1.68;65.36;98385.31;5089457;28;20055;-67
2020/12/28 01:15:44;;;;;;;12.48;7.97;;;;;;;1.76;65.63;98376.19;5087674;28;20052;-64
2020/12/28 01:18:10;;;;;;;19.08;11.43;;;;;;;1.87;65.16;98364.13;5087517;28;20064;-67
2020/12/28 01:20:38;;;;;;;14.40;8.35;;;;;;;1.94;65.07;98348.91;5088224;28;20048;-67
2020/12/28 01:23:06;;;;;;;19.35;14.48;;;;;;;1.97;65.32;98351.31;5087114;28;20048;-64
2020/12/28 01:25:33;;;;;;;16.55;8.73;;;;;;;2.01;65.13;98344.94;5086502;28;20048;-66
2020/12/28 01:28:00;;;;;;;12.05;7.43;;;;;;;2.03;64.99;98340.47;5089520;28;20404;-65
2020/12/28 01:30:26;;;;;;;14.55;9.00;;;;;;;2.04;65.24;98334.34;5091391;28;20059;-64
2020/12/28 01:32:54;;;;;;;18.88;9.93;;;;;;;2.07;65.20;98334.13;5090196;28;20054;-66
2020/12/28 01:35:20;;;;;;;18.48;11.80;;;;;;;2.01;65.16;98331.94;5091202;28;20056;-64
2020/12/28 01:37:47;;;;;;;13.80;7.78;;;;;;;2.05;65.16;98333.41;5089492;28;20048;-67
2020/12/28 01:40:14;;;;;;;14.55;8.35;;;;;;;2.21;64.61;98311.50;5090892;28;20048;-67
2020/12/28 01:42:41;;;;;;;14.45;7.60;;;;;;;2.25;64.76;98312.94;5091269;28;20052;-66
2020/12/28 01:45:08;;;;;;;12.43;7.35;;;;;;;2.27;64.75;98308.50;5091014;28;20044;-66
2020/12/28 01:47:34;;;;;;;10.13;6.35;;;;;;;2.28;64.60;98300.53;5090193;28;20078;-66
2020/12/28 01:50:01;;;;;;;11.18;6.35;;;;;;;2.33;64.53;98299.41;5091400;28;20052;-65
2020/12/28 01:52:27;;;;;;;17.40;10.95;;;;;;;2.35;64.52;98300.13;5088518;28;20048;-65
2020/12/28 01:54:55;;;;;;;16.50;8.85;;;;;;;2.39;64.76;98302.41;5089575;28;20048;-64
2020/12/28 01:57:21;;;;;;;18.02;12.43;;;;;;;2.39;64.66;98305.00;5090435;28;20052;-64
2020/12/28 01:59:48;;;;;;;9.75;6.10;;;;;;;2.42;64.53;98289.16;5087767;28;20048;-65
2020/12/28 02:02:19;;;;;;;14.63;7.38;;;;;;;2.42;64.58;98289.16;5089494;28;20044;-67
2020/12/28 02:04:45;;;;;;;15.90;8.73;;;;;;;2.41;64.50;98289.25;5091202;28;20048;-64
2020/12/28 02:07:15;;;;;;;10.00;6.50;;;;;;;2.44;64.52;98282.06;5089883;28;20056;-64
2020/12/28 02:09:45;;;;;;;17.38;9.07;;;;;;;2.45;64.68;98281.13;5091292;28;20048;-65
2020/12/28 02:12:11;;;;;;;13.68;8.23;;;;;;;2.44;64.61;98287.28;5090783;28;20044;-64
2020/12/28 02:14:38;;;;;;;18.77;12.02;;;;;;;2.44;64.73;98279.47;5089878;28;20423;-65
2020/12/28 02:17:05;;;;;;;11.07;6.57;;;;;;;2.46;64.57;98279.34;5090369;28;20415;-65
2020/12/28 02:19:31;;;;;;;14.98;7.53;;;;;;;2.49;64.51;98286.97;5089282;28;20456;-65
2020/12/28 02:21:59;;;;;;;12.93;6.93;;;;;;;2.43;64.88;98276.97;5090371;28;20044;-64
2020/12/28 02:24:25;;;;;;;15.10;9.50;;;;;;;2.51;64.79;98273.81;5090420;28;20040;-65
2020/12/28 02:26:51;;;;;;;15.50;9.07;;;;;;;2.54;64.83;98274.44;5089714;28;20056;-66
2020/12/28 02:29:18;;;;;;;11.73;8.50;;;;;;;2.60;64.58;98266.19;5089008;28;20145;-65
2020/12/28 02:31:44;;;;;;;11.50;6.22;;;;;;;2.64;64.58;98270.22;5090035;28;20050;-65
2020/12/28 02:34:10;;;;;;;12.20;7.93;;;;;;;2.68;64.57;98261.25;5089780;28;20089;-65
2020/12/28 02:36:37;;;;;;;13.75;9.05;;;;;;;2.71;64.68;98247.16;5088960;28;20051;-66
2020/12/28 02:39:04;;;;;;;19.63;10.30;;;;;;;2.71;64.80;98254.16;5089431;28;20048;-65
2020/12/28 02:41:31;;;;;;;19.33;10.05;;;;;;;2.78;64.77;98247.56;5090285;28;20495;-66
2020/12/28 02:43:57;;;;;;;10.93;8.07;;;;;;;2.79;64.52;98242.22;5089286;28;20630;-68
2020/12/28 02:46:23;;;;;;;12.43;6.57;;;;;;;2.81;64.90;98232.53;5088870;28;20052;-66
2020/12/28 02:48:50;;;;;;;24.40;15.25;;;;;;;2.64;65.43;98225.09;5088632;28;20040;-66
2020/12/28 02:51:16;;;;;;;12.65;7.93;;;;;;;2.56;65.84;98219.63;5088398;28;20044;-65
2020/12/28 02:53:42;;;;;;;12.05;8.05;;;;;;;2.57;65.87;98210.84;5087972;28;20040;-68
2020/12/28 02:56:10;;;;;;;19.98;10.30;;;;;;;2.58;66.13;98212.50;5087927;28;20613;-68
2020/12/28 02:58:36;;;;;;;13.30;7.78;;;;;;;2.59;66.19;98203.72;5085873;28;20048;-67
2020/12/28 03:01:02;;;;;;;9.40;5.75;;;;;;;2.62;66.11;98203.53;5088162;28;20050;-68
2020/12/28 03:03:29;;;;;;;14.30;7.60;;;;;;;2.85;65.56;98191.41;5087315;28;20040;-67
2020/12/28 03:05:55;;;;;;;15.18;7.43;;;;;;;2.87;65.31;98189.53;5086857;28;20044;-65
2020/12/28 03:08:22;;;;;;;15.93;11.45;;;;;;;2.97;65.15;98184.44;5088416;28;20047;-65
2020/12/28 03:10:48;;;;;;;11.35;6.40;;;;;;;2.97;65.10;98193.13;5088484;28;20450;-66
2020/12/28 03:13:15;;;;;;;12.27;7.32;;;;;;;2.99;65.23;98187.75;5066565;28;20460;-63
2020/12/28 03:15:42;;;;;;;13.48;7.85;;;;;;;3.00;65.16;98181.63;5067953;28;20409;-66
2020/12/28 03:18:08;;;;;;;9.35;6.43;;;;;;;3.00;65.11;98166.78;5067142;28;20052;-65
2020/12/28 03:20:34;;;;;;;14.80;7.72;;;;;;;2.97;65.20;98166.19;5066937;28;20627;-66
2020/12/28 03:23:01;;;;;;;15.68;8.18;;;;;;;3.00;65.33;98160.75;5067530;28;20056;-65
2020/12/28 03:25:27;;;;;;;13.35;7.47;;;;;;;3.00;65.31;98152.94;5066972;28;20102;-65
2020/12/28 03:27:53;;;;;;;17.73;8.07;;;;;;;3.03;65.36;98150.09;5067797;28;20141;-64
2020/12/28 03:30:21;;;;;;;6.00;3.45;;;;;;;3.07;65.18;98146.31;5065635;28;20051;-67
2020/12/28 03:32:47;;;;;;;13.48;7.80;;;;;;;3.06;65.13;98147.25;5067341;28;20408;-65
2020/12/28 03:35:13;;;;;;;18.70;11.85;;;;;;;3.06;65.29;98150.69;5067308;28;20063;-64
2020/12/28 03:37:40;;;;;;;21.48;13.07;;;;;;;3.08;65.34;98152.34;5066893;28;20059;-65
2020/12/28 03:40:07;;;;;;;21.55;12.63;;;;;;;3.12;65.45;98144.19;5068142;28;20126;-64
2020/12/28 03:42:33;;;;;;;14.10;9.48;;;;;;;3.14;65.42;98126.63;5066891;28;20052;-64
2020/12/28 03:44:59;;;;;;;11.32;6.43;;;;;;;3.15;65.55;98123.09;5067477;28;20509;-66
2020/12/28 03:47:27;;;;;;;16.02;11.52;;;;;;;3.15;65.56;98132.66;5067188;28;20044;-67
2020/12/28 03:49:53;;;;;;;14.10;7.45;;;;;;;3.22;65.41;98124.28;5066228;28;20040;-64
2020/12/28 03:52:21;;;;;;;11.45;7.07;;;;;;;3.23;65.27;98131.16;5067011;28;20057;-66
2020/12/28 03:54:48;;;;;;;11.88;6.85;;;;;;;3.29;65.41;98123.81;5067285;28;20053;-64
2020/12/28 03:57:14;;;;;;;16.70;9.90;;;;;;;3.34;65.34;98124.28;5067141;28;20063;-64
2020/12/28 03:59:40;;;;;;;13.80;8.02;;;;;;;3.37;65.20;98116.22;5065392;28;20059;-65
2020/12/28 04:02:07;;;;;;;12.30;8.50;;;;;;;3.42;65.25;98116.69;5066542;28;20055;-64
2020/12/28 04:04:34;;;;;;;17.08;9.93;;;;;;;3.42;65.15;98120.13;5066669;28;20086;-65
2020/12/28 04:07:00;;;;;;;13.93;8.45;;;;;;;3.50;65.03;98106.50;5066670;28;20063;-65
2020/12/28 04:09:27;;;;;;;10.93;6.40;;;;;;;3.52;64.97;98101.97;5065966;28;20105;-64
2020/12/28 04:11:53;;;;;;;14.13;9.35;;;;;;;3.54;65.13;98113.13;5067491;28;20048;-68
2020/12/28 04:14:20;;;;;;;12.00;5.80;;;;;;;3.59;64.90;98120.59;5065256;28;20507;-66
2020/12/28 04:16:46;;;;;;;20.55;9.68;;;;;;;3.61;64.88;98119.53;5066602;28;20104;-65
2020/12/28 04:19:12;;;;;;;13.85;8.77;;;;;;;3.64;64.66;98105.41;5067051;28;20060;-63
2020/12/28 04:21:40;;;;;;;13.48;7.00;;;;;;;3.69;64.65;98115.47;5066835;28;20435;-66
2020/12/28 04:24:06;;;;;;;14.93;8.50;;;;;;;3.72;64.74;98120.47;5065920;28;20400;-66
2020/12/28 04:26:32;;;;;;;15.13;8.13;;;;;;;3.72;64.60;98116.06;5066929;28;20098;-66
2020/12/28 04:29:00;;;;;;;13.52;9.80;;;;;;;3.76;64.74;98132.31;5065510;28;20049;-65
2020/12/28 04:31:26;;;;;;;16.50;9.55;;;;;;;3.76;64.59;98129.72;5066168;28;20064;-64
2020/12/28 04:33:53;;;;;;;14.95;8.98;;;;;;;3.76;64.52;98125.34;5067160;28;20102;-65
2020/12/28 04:36:19;;;;;;;19.40;11.63;;;;;;;3.80;64.67;98125.94;5065156;28;20060;-65
2020/12/28 04:38:46;;;;;;;18.77;9.30;;;;;;;3.80;64.64;98129.38;5066097;28;20045;-64
2020/12/28 04:41:13;;;;;;;16.58;9.80;;;;;;;3.82;64.58;98127.47;5066351;28;20107;-66
2020/12/28 04:43:39;;;;;;;16.75;8.85;;;;;;;3.82;64.62;98127.47;5066466;28;20048;-66
2020/12/28 04:46:07;;;;;;;15.35;9.55;;;;;;;3.79;64.69;98127.69;5065465;28;20052;-64
2020/12/28 04:48:34;;;;;;;12.63;7.57;;;;;;;3.75;64.66;98110.63;5066593;28;20056;-63
2020/12/28 04:51:01;;;;;;;15.25;9.63;;;;;;;3.73;64.79;98112.53;5066424;28;20048;-65
2020/12/28 04:53:28;;;;;;;17.40;10.27;;;;;;;3.72;64.91;98121.28;5066180;28;20623;-67
2020/12/28 04:55:56;;;;;;;16.80;11.82;;;;;;;3.71;64.97;98124.03;5067077;28;20040;-65
2020/12/28 04:58:22;;;;;;;16.95;11.27;;;;;;;3.70;64.98;98128.41;5064044;28;20037;-69
2020/12/28 05:00:56;;;;;;;17.05;9.75;;;;;;;3.74;64.90;98126.41;5065977;28;20127;-68
2020/12/28 05:03:24;;;;;;;18.88;10.75;;;;;;;3.75;64.69;98121.06;5066567;28;20420;-64
2020/12/28 05:05:51;;;;;;;13.35;7.18;;;;;;;3.75;65.03;98123.66;5065349;28;20111;-67
2020/12/28 05:08:18;;;;;;;15.55;7.43;;;;;;;3.76;64.90;98127.97;5065536;28;20106;-64
2020/12/28 05:10:44;;;;;;;14.95;8.95;;;;;;;3.76;64.89;98130.56;5066547;28;20511;-64
2020/12/28 05:13:13;;;;;;;18.38;10.98;;;;;;;3.77;65.02;98124.38;5070210;28;20052;-67
2020/12/28 05:15:50;;;;;;;18.92;8.90;;;;;;;3.76;65.27;98108.81;5085692;28;20155;-63
2020/12/28 05:18:17;;;;;;;26.90;13.65;;;;;;;3.66;65.24;98107.91;5086235;28;20150;-65
2020/12/28 05:20:45;;;;;;;22.17;14.15;;;;;;;3.62;65.45;98117.75;5085420;28;20048;-65
2020/12/28 05:23:12;;;;;;;26.63;16.92;;;;;;;3.56;65.64;98106.00;5085581;28;20041;-66
2020/12/28 05:25:39;;;;;;;16.52;9.00;;;;;;;3.53;65.78;98095.81;5086081;28;20093;-65
2020/12/28 05:28:05;;;;;;;18.15;10.05;;;;;;;3.51;65.77;98089.88;5083176;28;20063;-66
2020/12/28 05:30:34;;;;;;;16.85;10.00;;;;;;;3.51;65.89;98091.66;5084772;28;20476;-64
2020/12/28 05:33:04;;;;;;;12.55;8.45;;;;;;;3.50;66.00;98084.78;5085172;28;20078;-67
2020/12/28 05:35:32;;;;;;;16.35;11.13;;;;;;;3.46;66.05;98073.75;5084261;28;20056;-65
2020/12/28 05:38:03;;;;;;;12.68;7.45;;;;;;;3.45;66.26;98070.28;5086024;28;20074;-64
2020/12/28 05:40:32;;;;;;;16.23;7.43;;;;;;;3.42;66.42;98041.84;5084891;28;20044;-68
2020/12/28 05:42:59;;;;;;;18.90;11.80;;;;;;;3.41;66.61;98055.84;5085084;28;20056;-65
2020/12/28 05:45:25;;;;;;;16.88;11.55;;;;;;;3.40;66.63;98064.63;5085531;28;20052;-64
2020/12/28 05:47:54;;;;;;;14.95;8.52;;;;;;;3.41;66.67;98066.28;5084221;28;20059;-64
2020/12/28 05:50:23;;;;;;;13.65;7.75;;;;;;;3.43;66.71;98060.94;5084484;28;20044;-65
2020/12/28 05:52:53;;;;;;;16.63;8.77;;;;;;;3.44;66.68;98060.81;5084754;28;20453;-65
2020/12/28 05:55:22;;;;;;;15.20;9.30;;;;;;;3.44;66.88;98071.25;5084913;28;20052;-64
2020/12/28 05:57:49;;;;;;;13.57;8.95;;;;;;;3.45;67.00;98046.00;5084457;28;20044;-65
2020/12/28 06:00:16;;;;;;;14.70;10.73;;;;;;;3.43;67.07;98040.06;5082070;28;20047;-64
2020/12/28 06:02:43;;;;;;;12.82;8.35;;;;;;;3.42;67.06;98030.56;5083107;28;20052;-65
2020/12/28 06:05:10;;;;;;;15.75;9.63;;;;;;;3.41;67.27;98042.78;5083078;28;20101;-65
2020/12/28 06:07:37;;;;;;;20.17;12.90;;;;;;;3.40;67.18;98029.84;5084189;28;20084;-65
2020/12/28 06:10:04;;;;;;;14.82;8.68;;;;;;;3.40;67.39;98037.69;5083818;28;20093;-67
2020/12/28 06:12:31;;;;;;;11.60;6.50;;;;;;;3.41;67.61;98032.34;5084463;28;20052;-64
2020/12/28 06:14:58;;;;;;;12.18;6.70;;;;;;;3.36;67.64;98049.31;5087403;28;20184;-65
2020/12/28 06:17:33;;;;;;;17.67;9.27;;;;;;;3.37;67.80;98048.38;5086503;28;20055;-68
2020/12/28 06:20:02;;;;;;;15.27;8.73;;;;;;;3.38;67.73;98055.25;5068921;28;20597;-72
2020/12/28 06:22:29;;;;;;;14.45;10.07;;;;;;;3.37;67.96;98041.38;5034450;28;20060;-67
2020/12/28 06:24:58;;;;;;;19.58;14.20;;;;;;;3.38;67.87;98036.97;5088199;28;20110;-65
2020/12/28 06:27:32;;;;;;;19.23;12.10;;;;;;;3.41;68.11;98034.97;5090464;28;20055;-64
2020/12/28 06:30:15;;;;;;;14.27;9.07;;;;;;;3.43;68.23;98037.44;5089373;28;20101;-65
2020/12/28 06:32:43;;;;;;;16.80;11.82;;;;;;;3.37;68.10;98058.81;5094935;28;20051;-69
2020/12/28 06:35:10;;;;;;;15.88;9.40;;;;;;;3.36;68.16;98049.31;5105538;28;20032;-67
2020/12/28 06:37:43;;;;;;;13.15;8.15;;;;;;;3.37;68.13;98036.16;5106463;28;20040;-71
2020/12/28 06:40:11;;;;;;;16.67;10.93;;;;;;;3.40;67.97;98037.69;5106839;28;20055;-70
2020/12/28 06:42:38;;;;;;;9.43;6.70;;;;;;;3.44;68.05;98039.13;5108889;28;20044;-71
2020/12/28 06:45:12;;;;;;;9.07;6.35;;;;;;;3.45;68.13;98038.16;5106565;28;20108;-69
2020/12/28 06:47:39;;;;;;;17.95;14.68;;;;;;;3.45;68.28;98030.31;5101451;28;20208;-74
2020/12/28 06:50:06;;;;;;;15.98;8.85;;;;;;;3.46;68.15;98026.78;5091613;28;20419;-73
2020/12/28 06:52:32;;;;;;;13.60;9.48;;;;;;;3.50;68.18;98029.97;5091119;28;20048;-71
2020/12/28 06:55:08;;;;;;;12.10;9.63;;;;;;;3.52;68.39;98026.28;5088770;28;20044;-68
2020/12/28 06:57:34;;;;;;;17.92;11.27;;;;;;;3.57;68.10;98018.09;5088786;28;20058;-70
2020/12/28 07:00:01;;;;;;;18.85;10.13;;;;;;;3.59;68.36;98024.03;5085183;28;20071;-74
2020/12/28 07:02:28;;;;;;;15.57;10.93;;;;;;;3.63;68.25;98004.56;5087371;28;20136;-71
2020/12/28 07:04:55;;;;;;;17.98;11.65;;;;;;;3.62;68.30;98026.41;5088271;28;20055;-66
2020/12/28 07:07:22;;;;;;;20.38;9.68;;;;;;;3.67;68.15;98026.03;5086221;28;20234;-72
2020/12/28 07:09:49;;;;;;;20.42;11.40;;;;;;;3.70;68.05;98031.00;5089327;28;20048;-73
2020/12/28 07:12:16;;;;;;;14.45;8.70;;;;;;;3.69;68.18;98034.56;5087235;28;20071;-70
2020/12/28 07:14:43;;;;;;;14.27;7.70;;;;;;;3.72;68.03;98031.72;5086281;28;20221;-73
2020/12/28 07:17:09;;;;;;;13.80;8.02;;;;;;;3.77;67.98;98021.72;5088997;28;20048;-66
2020/12/28 07:19:35;;;;;;;21.23;13.07;;;;;;;3.80;68.05;98024.09;5087292;28;20052;-69
2020/12/28 07:22:02;;;;;;;13.85;8.15;;;;;;;3.85;67.90;98026.31;5088064;28;20090;-69
2020/12/28 07:24:29;;;;;;;15.80;8.98;;;;;;;3.92;67.69;98030.09;5071744;28;20044;-73
2020/12/28 07:26:55;;;;;;;15.43;8.93;;;;;;;3.95;67.72;98028.06;5088979;28;20598;-77
2020/12/28 07:29:23;;;;;;;16.10;9.38;;;;;;;3.98;67.79;98022.59;5085296;28;20055;-68
2020/12/28 07:31:49;;;;;;;16.23;10.60;;;;;;;4.01;67.86;98018.91;5087129;28;20514;-76
2020/12/28 07:34:16;;;;;;;16.33;9.85;;;;;;;4.09;67.85;98023.50;5085551;28;20535;-70
2020/12/28 07:36:45;;;;;;;16.88;11.27;;;;;;;4.20;67.30;98015.63;5066283;28;20487;-69
2020/12/28 07:39:13;;;;;;;18.05;11.45;;;;;;;4.28;67.49;98007.97;5087315;28;20048;-70
2020/12/28 07:41:42;;;;;;;12.65;7.45;;;;;;;4.40;66.77;97996.50;5089429;28;20104;-77
2020/12/28 07:44:13;;;;;;;14.57;10.07;;;;;;;4.48;66.92;98008.09;5088894;28;20145;-75
2020/12/28 07:46:51;;;;;;;11.27;6.80;;;;;;;4.51;66.82;98010.47;5087693;28;20055;-74
2020/12/28 07:49:21;;;;;;;17.50;10.48;;;;;;;4.47;67.01;97996.84;5086646;28;20059;-66
2020/12/28 07:51:51;;;;;;;18.02;8.18;;;;;;;4.46;66.98;97995.16;5084464;28;20079;-71
2020/12/28 07:54:22;;;;;;;11.40;7.85;;;;;;;4.49;67.04;97992.31;5085709;28;20048;-68
2020/12/28 07:56:51;;;;;;;16.20;10.52;;;;;;;4.51;67.17;97992.19;5084019;28;20055;-70
2020/12/28 07:59:51;;;;;;;9.60;6.53;;;;;;;4.58;66.96;97990.72;5082203;28;20044;-68
2020/12/28 08:02:33;;;;;;;17.55;8.70;;;;;;;4.63;66.94;97995.53;5061539;28;20055;-70
2020/12/28 08:05:00;;;;;;;14.73;8.45;;;;;;;4.65;66.88;98010.16;5084754;28;20052;-69
2020/12/28 08:07:33;;;;;;;17.83;10.15;;;;;;;4.63;66.96;98004.22;5085016;28;20050;-68
2020/12/28 08:10:02;;;;;;;12.80;6.68;;;;;;;4.65;66.99;97998.88;5083161;28;20572;-64
2020/12/28 08:12:33;;;;;;;9.52;5.72;;;;;;;4.76;66.80;97999.59;5083961;28;20052;-72
2020/12/28 08:14:59;;;;;;;15.88;8.88;;;;;;;4.81;66.69;97998.38;5084605;28;20060;-68
2020/12/28 08:17:27;;;;;;;12.45;9.23;;;;;;;4.81;66.71;97993.16;5082567;28;20047;-67
2020/12/28 08:20:05;;;;;;;17.77;10.55;;;;;;;4.89;66.58;97993.34;5078946;28;20052;-66
2020/12/28 08:22:31;;;;;;;11.73;7.75;;;;;;;4.96;66.26;97976.97;5083270;28;20044;-68
2020/12/28 08:25:09;;;;;;;15.10;10.75;;;;;;;4.97;66.27;97975.22;5083376;28;20059;-70
2020/12/28 08:27:36;;;;;;;14.07;11.18;;;;;;;4.99;66.08;97983.75;5083455;28;20103;-64
2020/12/28 08:30:08;;;;;;;14.88;9.57;;;;;;;5.04;66.07;97980.72;5082825;28;20052;-67
2020/12/28 08:32:38;;;;;;;14.85;11.15;;;;;;;5.03;66.04;97977.28;5084739;28;20048;-66
2020/12/28 08:35:06;;;;;;;15.18;9.43;;;;;;;5.09;65.80;97976.75;5083113;28;20044;-67
2020/12/28 08:37:33;;;;;;;18.05;10.00;;;;;;;5.10;65.93;97981.03;5064690;28;20283;-68
2020/12/28 08:39:59;;;;;;;18.08;12.07;;;;;;;5.12;65.79;97976.50;5080525;28;20048;-63
2020/12/28 08:42:27;;;;;;;12.88;7.65;;;;;;;5.17;65.68;97963.00;5080841;28;20048;-64
2020/12/28 08:44:54;;;;;;;18.48;9.48;;;;;;;5.24;65.63;97958.91;5081902;28;20046;-69
2020/12/28 08:47:20;;;;;;;15.23;8.98;;;;;;;5.29;65.60;97948.00;5082574;28;20052;-68
2020/12/28 08:49:49;;;;;;;14.02;9.32;;;;;;;5.35;65.44;97952.72;5079650;28;20052;-65
2020/12/28 08:52:17;;;;;;;12.95;9.25;;;;;;;5.45;65.32;97943.09;5080089;28;20647;-69
2020/12/28 08:54:53;;;;;;;15.55;10.60;;;;;;;5.58;65.04;97949.84;5080307;28;20048;-72
2020/12/28 08:57:20;;;;;;;11.30;7.00;;;;;;;5.67;64.85;97939.41;5081414;28;20047;-65
2020/12/28 08:59:46;;;;;;;11.75;6.63;;;;;;;5.74;64.52;97929.19;5080834;28;20044;-69
2020/12/28 09:02:17;;;;;;;12.82;6.50;;;;;;;5.82;64.45;97934.56;5079825;28;20141;-72
2020/12/28 09:04:43;;;;;;;12.60;6.65;;;;;;;5.85;64.47;97931.69;5080502;28;20051;-70
2020/12/28 09:07:11;;;;;;;13.40;7.45;;;;;;;5.87;64.31;97897.47;5081092;28;20047;-69
2020/12/28 09:09:39;;;;;;;13.40;7.65;;;;;;;5.89;64.11;97922.56;5079057;28;20052;-67
2020/12/28 09:12:06;;;;;;;12.32;8.85;;;;;;;5.87;63.95;97918.41;5081760;28;20048;-69
2020/12/28 09:14:32;;;;;;;9.85;7.50;;;;;;;5.87;63.93;97935.00;5082482;28;20315;-72
2020/12/28 09:16:59;;;;;;;13.07;8.88;;;;;;;5.85;63.88;97915.13;5081453;28;20460;-67
2020/12/28 09:19:25;;;;;;;13.45;8.65;;;;;;;5.86;63.87;97932.50;5080789;28;20044;-68
2020/12/28 09:21:52;;;;;;;15.32;9.80;;;;;;;5.88;64.04;97914.84;5080969;28;20458;-71
2020/12/28 09:24:19;;;;;;;11.90;7.57;;;;;;;5.92;63.75;97917.06;5085684;28;20407;-65
2020/12/28 09:26:46;;;;;;;15.00;8.55;;;;;;;6.00;63.53;97919.00;5093507;28;20097;-65
2020/12/28 09:29:12;;;;;;;13.68;8.77;;;;;;;6.03;63.44;97900.41;5091419;28;20107;-67
2020/12/28 09:31:38;;;;;;;13.18;6.68;;;;;;;6.09;63.36;97902.44;5084660;28;20048;-67
2020/12/28 09:34:05;;;;;;;15.48;8.68;;;;;;;6.12;63.25;97903.94;5086560;28;20058;-68
2020/12/28 09:36:32;;;;;;;15.48;8.20;;;;;;;6.19;63.05;97933.06;5084518;28;20051;-70
2020/12/28 09:39:01;;;;;;;10.70;6.07;;;;;;;6.27;62.91;97889.44;5078811;28;20113;-65
2020/12/28 09:41:28;;;;;;;15.73;8.35;;;;;;;6.30;62.81;97877.84;5080037;28;20079;-66
2020/12/28 09:43:54;;;;;;;12.73;8.18;;;;;;;6.32;62.76;97873.31;5078443;28;20048;-64
2020/12/28 09:46:21;;;;;;;14.85;9.27;;;;;;;6.32;62.81;97868.88;5078824;28;20624;-64
2020/12/28 09:48:48;;;;;;;13.10;8.18;;;;;;;6.36;62.71;97860.72;5082335;28;20622;-68
2020/12/28 09:51:15;;;;;;;15.75;11.32;;;;;;;6.39;62.76;97876.16;5082103;28;20152;-66
2020/12/28 09:53:43;;;;;;;14.73;8.70;;;;;;;6.46;62.62;97872.84;5082963;28;20059;-68
2020/12/28 09:56:13;;;;;;;17.75;9.57;;;;;;;6.53;62.41;97861.75;5085865;28;20744;-69
2020/12/28 09:58:40;;;;;;;12.88;8.52;;;;;;;6.61;62.41;97854.81;5079131;28;20135;-70
2020/12/28 10:01:06;;;;;;;13.98;8.75;;;;;;;6.72;62.13;97856.44;5082964;28;20048;-65
2020/12/28 10:03:33;;;;;;;12.98;7.97;;;;;;;6.80;61.88;97843.38;5084047;28;20055;-69
2020/12/28 10:05:59;;;;;;;11.50;9.18;;;;;;;6.79;61.76;97846.16;5082008;28;20052;-65
2020/12/28 10:08:26;;;;;;;13.10;9.23;;;;;;;6.85;61.73;97846.41;5082490;28;20048;-63
2020/12/28 10:10:52;;;;;;;13.63;8.32;;;;;;;6.89;61.56;97849.56;5082548;28;20044;-66
2020/12/28 10:13:19;;;;;;;12.10;8.20;;;;;;;6.94;61.48;97847.31;5082136;28;20616;-68
2020/12/28 10:15:47;;;;;;;9.27;4.68;;;;;;;7.02;61.46;97836.09;5083391;28;20055;-66
2020/12/28 10:18:39;;;;;;;12.55;5.47;;;;;;;7.09;61.49;97837.13;5083759;28;20047;-70
2020/12/28 10:21:10;;;;;;;13.40;6.70;;;;;;;7.16;61.35;97842.63;5080988;28;20648;-65
2020/12/28 10:23:37;;;;;;;13.00;8.00;;;;;;;7.23;61.25;97827.94;5086598;28;20464;-64
2020/12/28 10:26:05;;;;;;;13.73;8.75;;;;;;;7.35;60.94;97821.50;5081112;28;20058;-65
2020/12/28 10:28:33;;;;;;;12.32;7.97;;;;;;;7.40;60.57;97810.50;5081013;28;20048;-67
2020/12/28 10:31:00;;;;;;;11.60;7.30;;;;;;;7.49;60.52;97804.38;5081716;28;20077;-66
2020/12/28 10:33:27;;;;;;;12.20;6.20;;;;;;;7.60;60.39;97783.13;5083157;28;20697;-71
2020/12/28 10:35:53;;;;;;;13.05;8.35;;;;;;;7.73;60.07;97785.34;5081150;28;20044;-67
2020/12/28 10:38:20;;;;;;;10.82;6.20;;;;;;;7.89;59.73;97776.75;5080772;28;20044;-68
2020/12/28 10:40:46;;;;;;;10.63;6.95;;;;;;;8.00;59.44;97781.72;5080970;28;20100;-67
2020/12/28 10:43:13;;;;;;;8.90;5.20;;;;;;;8.13;59.11;97769.97;5079637;28;20354;-69
2020/12/28 10:45:39;;;;;;;11.52;6.97;;;;;;;8.16;59.09;97770.47;5082948;28;20051;-70
2020/12/28 10:48:06;;;;;;;11.70;7.72;;;;;;;8.17;59.11;97760.78;5081397;28;20056;-65
2020/12/28 10:50:33;;;;;;;10.52;6.38;;;;;;;8.26;59.05;97772.16;5080468;28;20052;-67
2020/12/28 10:52:59;;;;;;;12.50;6.93;;;;;;;8.32;58.87;97761.00;5080480;28;20052;-67
2020/12/28 10:55:26;;;;;;;11.32;6.05;;;;;;;8.31;58.86;97765.44;5080912;28;20694;-70
2020/12/28 10:57:52;;;;;;;11.98;6.70;;;;;;;8.32;58.72;97769.72;5079826;28;20122;-67
2020/12/28 11:00:18;;;;;;;11.65;6.55;;;;;;;8.38;58.70;97755.13;5076144;28;20121;-66
2020/12/28 11:02:45;;;;;;;10.15;6.32;;;;;;;8.40;58.48;97746.06;5078853;28;20044;-66
2020/12/28 11:05:12;;;;;;;8.57;4.88;;;;;;;8.39;58.44;97740.97;5077141;28;20113;-64
2020/12/28 11:07:38;;;;;;;10.80;8.68;;;;;;;8.37;58.40;97733.25;5078407;28;20047;-68
2020/12/28 11:10:05;;;;;;;9.27;6.43;;;;;;;8.31;58.35;97727.81;5078848;28;20039;-66
2020/12/28 11:12:31;;;;;;;12.68;8.07;;;;;;;8.30;58.42;97736.66;5077404;28;20474;-65
2020/12/28 11:14:57;;;;;;;12.93;9.23;;;;;;;8.33;58.36;97733.72;5079055;28;20048;-65
2020/12/28 11:17:24;;;;;;;11.50;7.47;;;;;;;8.24;58.48;97744.19;5077492;28;20643;-65
2020/12/28 11:19:50;;;;;;;9.95;7.78;;;;;;;8.08;58.89;97738.06;5076876;28;20076;-72
2020/12/28 11:22:18;;;;;;;8.57;5.55;;;;;;;7.98;59.01;97711.91;5078127;28;20130;-65
2020/12/28 11:24:44;;;;;;;14.68;6.95;;;;;;;7.81;59.44;97732.84;5078352;28;20048;-65
2020/12/28 11:27:10;;;;;;;13.30;9.55;;;;;;;7.73;59.55;97714.41;5078607;28;20507;-67
2020/12/28 11:29:37;;;;;;;8.38;5.75;;;;;;;7.79;59.50;97708.50;5076849;28;20078;-66
2020/12/28 11:32:03;;;;;;;11.45;7.22;;;;;;;7.91;59.38;97695.94;5078580;28;20040;-67
2020/12/28 11:34:30;;;;;;;6.78;4.93;;;;;;;7.91;59.52;97679.34;5078585;28;20048;-66